sensor_id;sensor_type;location;lat;lon;timestamp;P1;durP1;ratioP1;P2;durP2;ratioP2
66145;SDS011;52948;60.040;30.320;2023-08-01T00:00:43;11.15;;;6.03;;
66145;SDS011;52948;60.040;30.320;2023-08-01T00:05:45;10.68;;;5.80;;
66145;SDS011;52948;60.040;30.320;2023-08-01T00:10:47;8.68;;;5.32;;
66145;SDS011;52948;60.040;30.320;2023-08-01T00:15:50;6.93;;;4.93;;
66145;SDS011;52948;60.040;30.320;2023-08-01T00:20:53;9.68;;;5.38;;
66145;SDS011;52948;60.040;30.320;2023-08-01T00:25:56;6.07;;;4.57;;
66145;SDS011;52948;60.040;30.320;2023-08-01T00:31:01;7.32;;;5.13;;
66145;SDS011;52948;60.040;30.320;2023-08-01T00:36:07;8.98;;;5.43;;
66145;SDS011;52948;60.040;30.320;2023-08-01T00:41:12;8.07;;;5.57;;
66145;SDS011;52948;60.040;30.320;2023-08-01T00:46:14;7.43;;;5.80;;
66145;SDS011;52948;60.040;30.320;2023-08-01T00:51:17;7.82;;;5.18;;
66145;SDS011;52948;60.040;30.320;2023-08-01T00:56:20;9.35;;;6.13;;
66145;SDS011;52948;60.040;30.320;2023-08-01T01:01:22;10.23;;;5.35;;
66145;SDS011;52948;60.040;30.320;2023-08-01T01:06:25;8.90;;;5.53;;
66145;SDS011;52948;60.040;30.320;2023-08-01T01:11:33;8.80;;;5.22;;
66145;SDS011;52948;60.040;30.320;2023-08-01T01:16:36;10.43;;;4.95;;
66145;SDS011;52948;60.040;30.320;2023-08-01T01:21:39;8.95;;;5.47;;
66145;SDS011;52948;60.040;30.320;2023-08-01T01:26:41;7.07;;;5.47;;
66145;SDS011;52948;60.040;30.320;2023-08-01T01:31:44;6.55;;;5.43;;
66145;SDS011;52948;60.040;30.320;2023-08-01T01:36:48;8.50;;;5.78;;
66145;SDS011;52948;60.040;30.320;2023-08-01T01:41:50;9.98;;;5.72;;
66145;SDS011;52948;60.040;30.320;2023-08-01T01:46:53;7.80;;;5.68;;
66145;SDS011;52948;60.040;30.320;2023-08-01T01:51:58;9.75;;;6.53;;
66145;SDS011;52948;60.040;30.320;2023-08-01T01:57:01;9.02;;;6.30;;
66145;SDS011;52948;60.040;30.320;2023-08-01T02:02:03;10.88;;;6.15;;
66145;SDS011;52948;60.040;30.320;2023-08-01T02:07:06;8.85;;;5.63;;
66145;SDS011;52948;60.040;30.320;2023-08-01T02:12:08;8.13;;;5.38;;
66145;SDS011;52948;60.040;30.320;2023-08-01T02:17:12;9.88;;;6.13;;
66145;SDS011;52948;60.040;30.320;2023-08-01T02:22:14;8.88;;;5.68;;
66145;SDS011;52948;60.040;30.320;2023-08-01T02:27:16;9.15;;;5.97;;
66145;SDS011;52948;60.040;30.320;2023-08-01T02:32:19;9.05;;;5.85;;
66145;SDS011;52948;60.040;30.320;2023-08-01T02:37:21;7.88;;;5.90;;
66145;SDS011;52948;60.040;30.320;2023-08-01T02:42:24;9.52;;;6.30;;
66145;SDS011;52948;60.040;30.320;2023-08-01T02:47:26;10.55;;;6.20;;
66145;SDS011;52948;60.040;30.320;2023-08-01T02:52:28;8.93;;;6.03;;
66145;SDS011;52948;60.040;30.320;2023-08-01T02:57:31;8.20;;;6.32;;
66145;SDS011;52948;60.040;30.320;2023-08-01T03:02:34;8.95;;;6.25;;
66145;SDS011;52948;60.040;30.320;2023-08-01T03:07:36;8.88;;;5.88;;
66145;SDS011;52948;60.040;30.320;2023-08-01T03:12:38;11.43;;;6.53;;
66145;SDS011;52948;60.040;30.320;2023-08-01T03:17:40;10.15;;;7.57;;
66145;SDS011;52948;60.040;30.320;2023-08-01T03:22:44;12.18;;;7.60;;
66145;SDS011;52948;60.040;30.320;2023-08-01T03:27:47;14.93;;;8.20;;
66145;SDS011;52948;60.040;30.320;2023-08-01T03:32:49;14.30;;;7.45;;
66145;SDS011;52948;60.040;30.320;2023-08-01T03:37:51;16.90;;;8.73;;
66145;SDS011;52948;60.040;30.320;2023-08-01T03:42:54;14.07;;;8.73;;
66145;SDS011;52948;60.040;30.320;2023-08-01T03:47:56;17.20;;;8.75;;
66145;SDS011;52948;60.040;30.320;2023-08-01T03:52:58;14.93;;;8.52;;
66145;SDS011;52948;60.040;30.320;2023-08-01T03:58:00;13.02;;;8.82;;
66145;SDS011;52948;60.040;30.320;2023-08-01T04:03:03;15.10;;;8.65;;
66145;SDS011;52948;60.040;30.320;2023-08-01T04:08:05;13.35;;;8.85;;
66145;SDS011;52948;60.040;30.320;2023-08-01T04:13:07;14.57;;;9.88;;
66145;SDS011;52948;60.040;30.320;2023-08-01T04:18:09;15.07;;;8.18;;
66145;SDS011;52948;60.040;30.320;2023-08-01T04:23:11;13.20;;;7.85;;
66145;SDS011;52948;60.040;30.320;2023-08-01T04:28:14;14.43;;;8.13;;
66145;SDS011;52948;60.040;30.320;2023-08-01T04:33:16;14.57;;;8.77;;
66145;SDS011;52948;60.040;30.320;2023-08-01T04:38:18;14.50;;;9.35;;
66145;SDS011;52948;60.040;30.320;2023-08-01T04:43:20;16.05;;;10.23;;
66145;SDS011;52948;60.040;30.320;2023-08-01T04:48:22;11.95;;;8.63;;
66145;SDS011;52948;60.040;30.320;2023-08-01T04:53:24;13.32;;;8.18;;
66145;SDS011;52948;60.040;30.320;2023-08-01T04:58:27;13.93;;;9.32;;
66145;SDS011;52948;60.040;30.320;2023-08-01T05:03:29;12.75;;;7.78;;
66145;SDS011;52948;60.040;30.320;2023-08-01T05:08:31;14.23;;;8.32;;
66145;SDS011;52948;60.040;30.320;2023-08-01T05:13:33;11.90;;;7.47;;
66145;SDS011;52948;60.040;30.320;2023-08-01T05:18:36;8.65;;;6.28;;
66145;SDS011;52948;60.040;30.320;2023-08-01T05:23:38;9.95;;;6.93;;
66145;SDS011;52948;60.040;30.320;2023-08-01T05:28:40;7.88;;;5.22;;
66145;SDS011;52948;60.040;30.320;2023-08-01T05:33:42;11.50;;;6.03;;
66145;SDS011;52948;60.040;30.320;2023-08-01T05:38:44;6.85;;;4.53;;
66145;SDS011;52948;60.040;30.320;2023-08-01T05:43:48;9.30;;;5.00;;
66145;SDS011;52948;60.040;30.320;2023-08-01T05:48:50;8.02;;;4.53;;
66145;SDS011;52948;60.040;30.320;2023-08-01T05:53:52;8.48;;;5.28;;
66145;SDS011;52948;60.040;30.320;2023-08-01T05:58:55;8.95;;;6.00;;
66145;SDS011;52948;60.040;30.320;2023-08-01T06:03:57;9.88;;;6.03;;
66145;SDS011;52948;60.040;30.320;2023-08-01T06:08:59;5.53;;;4.72;;
66145;SDS011;52948;60.040;30.320;2023-08-01T06:14:01;5.80;;;4.43;;
66145;SDS011;52948;60.040;30.320;2023-08-01T06:19:03;5.60;;;4.45;;
66145;SDS011;52948;60.040;30.320;2023-08-01T06:24:05;5.80;;;3.92;;
66145;SDS011;52948;60.040;30.320;2023-08-01T06:29:09;4.65;;;3.28;;
66145;SDS011;52948;60.040;30.320;2023-08-01T06:34:11;7.47;;;3.53;;
66145;SDS011;52948;60.040;30.320;2023-08-01T06:39:13;3.15;;;2.80;;
66145;SDS011;52948;60.040;30.320;2023-08-01T06:44:16;6.95;;;3.28;;
66145;SDS011;52948;60.040;30.320;2023-08-01T06:49:18;4.28;;;2.80;;
66145;SDS011;52948;60.040;30.320;2023-08-01T06:54:20;3.90;;;2.50;;
66145;SDS011;52948;60.040;30.320;2023-08-01T06:59:22;4.78;;;2.47;;
66145;SDS011;52948;60.040;30.320;2023-08-01T07:04:24;4.63;;;2.75;;
66145;SDS011;52948;60.040;30.320;2023-08-01T07:09:26;6.78;;;2.95;;
66145;SDS011;52948;60.040;30.320;2023-08-01T07:14:29;3.30;;;3.00;;
66145;SDS011;52948;60.040;30.320;2023-08-01T07:19:31;6.10;;;2.90;;
66145;SDS011;52948;60.040;30.320;2023-08-01T07:24:33;6.15;;;3.08;;
66145;SDS011;52948;60.040;30.320;2023-08-01T07:29:35;6.63;;;3.28;;
66145;SDS011;52948;60.040;30.320;2023-08-01T07:34:38;5.40;;;3.40;;
66145;SDS011;52948;60.040;30.320;2023-08-01T07:39:40;4.95;;;3.47;;
66145;SDS011;52948;60.040;30.320;2023-08-01T07:44:42;5.97;;;2.65;;
66145;SDS011;52948;60.040;30.320;2023-08-01T07:49:44;4.65;;;3.17;;
66145;SDS011;52948;60.040;30.320;2023-08-01T07:54:46;8.32;;;3.40;;
66145;SDS011;52948;60.040;30.320;2023-08-01T07:59:49;5.03;;;3.13;;
66145;SDS011;52948;60.040;30.320;2023-08-01T08:04:51;5.93;;;3.47;;
66145;SDS011;52948;60.040;30.320;2023-08-01T08:09:53;4.85;;;3.22;;
66145;SDS011;52948;60.040;30.320;2023-08-01T08:14:57;4.43;;;3.00;;
66145;SDS011;52948;60.040;30.320;2023-08-01T08:19:59;4.38;;;2.95;;
66145;SDS011;52948;60.040;30.320;2023-08-01T08:25:01;4.80;;;2.70;;
66145;SDS011;52948;60.040;30.320;2023-08-01T08:30:04;3.50;;;3.05;;
66145;SDS011;52948;60.040;30.320;2023-08-01T08:35:06;4.22;;;3.22;;
66145;SDS011;52948;60.040;30.320;2023-08-01T08:40:09;5.13;;;2.97;;
66145;SDS011;52948;60.040;30.320;2023-08-01T08:45:12;3.33;;;3.03;;
66145;SDS011;52948;60.040;30.320;2023-08-01T08:50:20;5.35;;;3.40;;
66145;SDS011;52948;60.040;30.320;2023-08-01T08:55:23;4.40;;;3.05;;
66145;SDS011;52948;60.040;30.320;2023-08-01T09:00:29;3.30;;;2.60;;
66145;SDS011;52948;60.040;30.320;2023-08-01T09:05:34;3.88;;;2.80;;
66145;SDS011;52948;60.040;30.320;2023-08-01T09:10:39;3.60;;;2.83;;
66145;SDS011;52948;60.040;30.320;2023-08-01T09:15:42;3.58;;;3.00;;
66145;SDS011;52948;60.040;30.320;2023-08-01T09:20:47;4.20;;;2.72;;
66145;SDS011;52948;60.040;30.320;2023-08-01T09:25:50;4.80;;;3.15;;
66145;SDS011;52948;60.040;30.320;2023-08-01T09:30:54;3.03;;;2.55;;
66145;SDS011;52948;60.040;30.320;2023-08-01T09:35:57;6.18;;;3.40;;
66145;SDS011;52948;60.040;30.320;2023-08-01T09:40:59;3.92;;;2.75;;
66145;SDS011;52948;60.040;30.320;2023-08-01T09:46:02;2.80;;;2.33;;
66145;SDS011;52948;60.040;30.320;2023-08-01T09:51:08;4.88;;;2.50;;
66145;SDS011;52948;60.040;30.320;2023-08-01T09:56:10;4.85;;;2.40;;
66145;SDS011;52948;60.040;30.320;2023-08-01T10:01:14;2.50;;;2.30;;
66145;SDS011;52948;60.040;30.320;2023-08-01T10:06:20;2.70;;;2.30;;
66145;SDS011;52948;60.040;30.320;2023-08-01T10:11:24;2.60;;;2.40;;
66145;SDS011;52948;60.040;30.320;2023-08-01T10:16:26;3.97;;;2.60;;
66145;SDS011;52948;60.040;30.320;2023-08-01T10:21:28;4.72;;;3.40;;
66145;SDS011;52948;60.040;30.320;2023-08-01T10:26:31;4.57;;;2.53;;
66145;SDS011;52948;60.040;30.320;2023-08-01T10:31:33;3.92;;;2.40;;
66145;SDS011;52948;60.040;30.320;2023-08-01T10:36:36;2.70;;;2.33;;
66145;SDS011;52948;60.040;30.320;2023-08-01T10:41:38;2.95;;;2.40;;
66145;SDS011;52948;60.040;30.320;2023-08-01T10:52:19;2.60;;;2.03;;
66145;SDS011;52948;60.040;30.320;2023-08-01T10:57:21;4.05;;;2.22;;
66145;SDS011;52948;60.040;30.320;2023-08-01T11:02:26;2.17;;;1.98;;
66145;SDS011;52948;60.040;30.320;2023-08-01T11:07:29;4.15;;;2.15;;
66145;SDS011;52948;60.040;30.320;2023-08-01T11:12:39;2.70;;;2.13;;
66145;SDS011;52948;60.040;30.320;2023-08-01T11:17:46;3.17;;;1.90;;
66145;SDS011;52948;60.040;30.320;2023-08-01T11:27:56;3.30;;;1.80;;
66145;SDS011;52948;60.040;30.320;2023-08-01T11:32:58;3.70;;;2.10;;
66145;SDS011;52948;60.040;30.320;2023-08-01T11:38:01;1.92;;;1.58;;
66145;SDS011;52948;60.040;30.320;2023-08-01T11:43:03;2.70;;;2.17;;
66145;SDS011;52948;60.040;30.320;2023-08-01T11:48:05;2.00;;;1.42;;
66145;SDS011;52948;60.040;30.320;2023-08-01T11:53:17;2.88;;;1.73;;
66145;SDS011;52948;60.040;30.320;2023-08-01T11:58:27;2.60;;;1.85;;
66145;SDS011;52948;60.040;30.320;2023-08-01T12:03:46;1.77;;;1.50;;
66145;SDS011;52948;60.040;30.320;2023-08-01T12:08:52;2.28;;;1.83;;
66145;SDS011;52948;60.040;30.320;2023-08-01T12:14:01;2.42;;;1.70;;
66145;SDS011;52948;60.040;30.320;2023-08-01T12:19:17;2.15;;;1.88;;
66145;SDS011;52948;60.040;30.320;2023-08-01T12:24:21;2.08;;;1.60;;
66145;SDS011;52948;60.040;30.320;2023-08-01T12:29:23;1.60;;;1.33;;
66145;SDS011;52948;60.040;30.320;2023-08-01T12:34:25;2.30;;;1.40;;
66145;SDS011;52948;60.040;30.320;2023-08-01T12:39:28;2.65;;;1.83;;
66145;SDS011;52948;60.040;30.320;2023-08-01T12:44:30;1.50;;;1.30;;
66145;SDS011;52948;60.040;30.320;2023-08-01T12:49:32;1.60;;;1.48;;
66145;SDS011;52948;60.040;30.320;2023-08-01T12:54:34;2.10;;;1.33;;
66145;SDS011;52948;60.040;30.320;2023-08-01T12:59:36;1.77;;;1.20;;
66145;SDS011;52948;60.040;30.320;2023-08-01T13:04:38;1.73;;;1.60;;
66145;SDS011;52948;60.040;30.320;2023-08-01T13:09:41;1.50;;;1.30;;
66145;SDS011;52948;60.040;30.320;2023-08-01T13:14:43;1.73;;;1.63;;
66145;SDS011;52948;60.040;30.320;2023-08-01T13:19:45;2.50;;;1.60;;
66145;SDS011;52948;60.040;30.320;2023-08-01T13:24:48;2.10;;;1.77;;
66145;SDS011;52948;60.040;30.320;2023-08-01T13:29:50;1.77;;;1.42;;
66145;SDS011;52948;60.040;30.320;2023-08-01T13:34:55;3.47;;;1.30;;
66145;SDS011;52948;60.040;30.320;2023-08-01T13:39:57;3.33;;;1.90;;
66145;SDS011;52948;60.040;30.320;2023-08-01T13:45:00;2.33;;;1.50;;
66145;SDS011;52948;60.040;30.320;2023-08-01T13:50:02;2.05;;;1.52;;
66145;SDS011;52948;60.040;30.320;2023-08-01T13:55:04;2.63;;;1.50;;
66145;SDS011;52948;60.040;30.320;2023-08-01T14:00:09;3.13;;;1.33;;
66145;SDS011;52948;60.040;30.320;2023-08-01T14:05:18;4.63;;;1.40;;
66145;SDS011;52948;60.040;30.320;2023-08-01T14:10:21;3.00;;;1.23;;
66145;SDS011;52948;60.040;30.320;2023-08-01T14:15:23;1.75;;;1.33;;
66145;SDS011;52948;60.040;30.320;2023-08-01T14:20:25;2.60;;;1.30;;
66145;SDS011;52948;60.040;30.320;2023-08-01T14:25:28;1.63;;;1.52;;
66145;SDS011;52948;60.040;30.320;2023-08-01T14:30:30;1.63;;;1.20;;
66145;SDS011;52948;60.040;30.320;2023-08-01T14:35:32;1.48;;;1.38;;
66145;SDS011;52948;60.040;30.320;2023-08-01T14:40:35;2.78;;;1.58;;
66145;SDS011;52948;60.040;30.320;2023-08-01T14:45:41;4.55;;;1.73;;
66145;SDS011;52948;60.040;30.320;2023-08-01T14:50:43;2.35;;;1.70;;
66145;SDS011;52948;60.040;30.320;2023-08-01T14:55:55;1.50;;;1.40;;
66145;SDS011;52948;60.040;30.320;2023-08-01T15:01:03;2.47;;;1.40;;
66145;SDS011;52948;60.040;30.320;2023-08-01T15:06:06;3.05;;;1.70;;
66145;SDS011;52948;60.040;30.320;2023-08-01T15:11:09;2.05;;;1.80;;
66145;SDS011;52948;60.040;30.320;2023-08-01T15:16:12;3.90;;;1.80;;
66145;SDS011;52948;60.040;30.320;2023-08-01T15:21:19;1.50;;;1.30;;
66145;SDS011;52948;60.040;30.320;2023-08-01T15:26:22;1.55;;;1.33;;
66145;SDS011;52948;60.040;30.320;2023-08-01T15:31:29;1.50;;;1.30;;
66145;SDS011;52948;60.040;30.320;2023-08-01T15:36:31;1.73;;;1.40;;
66145;SDS011;52948;60.040;30.320;2023-08-01T15:41:34;3.90;;;1.58;;
66145;SDS011;52948;60.040;30.320;2023-08-01T15:46:36;2.10;;;1.63;;
66145;SDS011;52948;60.040;30.320;2023-08-01T15:51:38;1.40;;;1.30;;
66145;SDS011;52948;60.040;30.320;2023-08-01T15:56:40;2.38;;;1.60;;
66145;SDS011;52948;60.040;30.320;2023-08-01T16:01:45;1.55;;;1.30;;
66145;SDS011;52948;60.040;30.320;2023-08-01T16:06:48;2.45;;;1.38;;
66145;SDS011;52948;60.040;30.320;2023-08-01T16:11:50;3.13;;;1.30;;
66145;SDS011;52948;60.040;30.320;2023-08-01T16:16:52;1.60;;;1.10;;
66145;SDS011;52948;60.040;30.320;2023-08-01T16:21:57;1.63;;;1.38;;
66145;SDS011;52948;60.040;30.320;2023-08-01T16:26:59;3.47;;;1.35;;
66145;SDS011;52948;60.040;30.320;2023-08-01T16:32:01;2.75;;;1.27;;
66145;SDS011;52948;60.040;30.320;2023-08-01T16:37:03;1.52;;;1.27;;
66145;SDS011;52948;60.040;30.320;2023-08-01T16:42:06;1.75;;;1.35;;
66145;SDS011;52948;60.040;30.320;2023-08-01T16:47:09;2.42;;;1.45;;
66145;SDS011;52948;60.040;30.320;2023-08-01T16:52:11;2.80;;;1.40;;
66145;SDS011;52948;60.040;30.320;2023-08-01T16:57:13;1.85;;;1.58;;
66145;SDS011;52948;60.040;30.320;2023-08-01T17:02:15;3.38;;;1.50;;
66145;SDS011;52948;60.040;30.320;2023-08-01T17:07:17;2.33;;;1.42;;
66145;SDS011;52948;60.040;30.320;2023-08-01T17:12:20;2.22;;;1.60;;
66145;SDS011;52948;60.040;30.320;2023-08-01T17:17:23;1.90;;;1.80;;
66145;SDS011;52948;60.040;30.320;2023-08-01T17:22:25;3.17;;;1.92;;
66145;SDS011;52948;60.040;30.320;2023-08-01T17:27:31;1.50;;;1.30;;
66145;SDS011;52948;60.040;30.320;2023-08-01T17:32:33;3.60;;;1.50;;
66145;SDS011;52948;60.040;30.320;2023-08-01T17:37:35;2.50;;;1.63;;
66145;SDS011;52948;60.040;30.320;2023-08-01T17:42:37;2.15;;;1.40;;
66145;SDS011;52948;60.040;30.320;2023-08-01T17:47:40;1.88;;;1.58;;
66145;SDS011;52948;60.040;30.320;2023-08-01T17:52:42;1.92;;;1.48;;
66145;SDS011;52948;60.040;30.320;2023-08-01T17:57:44;2.00;;;1.50;;
66145;SDS011;52948;60.040;30.320;2023-08-01T18:02:46;2.20;;;1.52;;
66145;SDS011;52948;60.040;30.320;2023-08-01T18:07:53;2.42;;;1.48;;
66145;SDS011;52948;60.040;30.320;2023-08-01T18:12:55;2.05;;;1.77;;
66145;SDS011;52948;60.040;30.320;2023-08-01T18:17:58;3.22;;;1.38;;
66145;SDS011;52948;60.040;30.320;2023-08-01T18:23:00;3.45;;;1.90;;
66145;SDS011;52948;60.040;30.320;2023-08-01T18:28:03;1.67;;;1.58;;
66145;SDS011;52948;60.040;30.320;2023-08-01T18:33:05;2.00;;;1.77;;
66145;SDS011;52948;60.040;30.320;2023-08-01T18:38:07;3.15;;;1.88;;
66145;SDS011;52948;60.040;30.320;2023-08-01T18:43:09;2.53;;;1.90;;
66145;SDS011;52948;60.040;30.320;2023-08-01T18:48:12;3.30;;;2.17;;
66145;SDS011;52948;60.040;30.320;2023-08-01T18:53:14;2.42;;;1.70;;
66145;SDS011;52948;60.040;30.320;2023-08-01T18:58:16;2.85;;;1.88;;
66145;SDS011;52948;60.040;30.320;2023-08-01T19:03:18;3.10;;;1.75;;
66145;SDS011;52948;60.040;30.320;2023-08-01T19:08:21;6.35;;;2.05;;
66145;SDS011;52948;60.040;30.320;2023-08-01T19:13:24;2.50;;;2.00;;
66145;SDS011;52948;60.040;30.320;2023-08-01T19:18:27;4.55;;;2.38;;
66145;SDS011;52948;60.040;30.320;2023-08-01T19:23:30;3.47;;;2.40;;
66145;SDS011;52948;60.040;30.320;2023-08-01T19:28:32;3.08;;;2.25;;
66145;SDS011;52948;60.040;30.320;2023-08-01T19:33:39;3.60;;;2.63;;
66145;SDS011;52948;60.040;30.320;2023-08-01T19:38:42;2.08;;;1.90;;
66145;SDS011;52948;60.040;30.320;2023-08-01T19:43:44;3.40;;;2.35;;
66145;SDS011;52948;60.040;30.320;2023-08-01T19:48:52;4.97;;;2.47;;
66145;SDS011;52948;60.040;30.320;2023-08-01T19:53:54;4.40;;;2.90;;
66145;SDS011;52948;60.040;30.320;2023-08-01T19:58:56;3.63;;;2.97;;
66145;SDS011;52948;60.040;30.320;2023-08-01T20:03:58;10.65;;;3.90;;
66145;SDS011;52948;60.040;30.320;2023-08-01T20:09:02;6.60;;;3.38;;
66145;SDS011;52948;60.040;30.320;2023-08-01T20:14:05;9.82;;;3.78;;
66145;SDS011;52948;60.040;30.320;2023-08-01T20:19:07;5.25;;;3.63;;
66145;SDS011;52948;60.040;30.320;2023-08-01T20:24:09;5.55;;;3.75;;
66145;SDS011;52948;60.040;30.320;2023-08-01T20:29:11;5.03;;;3.40;;
66145;SDS011;52948;60.040;30.320;2023-08-01T20:34:13;4.60;;;3.47;;
66145;SDS011;52948;60.040;30.320;2023-08-01T20:39:16;6.63;;;3.83;;
66145;SDS011;52948;60.040;30.320;2023-08-01T20:44:23;7.03;;;3.78;;
66145;SDS011;52948;60.040;30.320;2023-08-01T20:49:26;8.20;;;3.15;;
66145;SDS011;52948;60.040;30.320;2023-08-01T20:54:28;5.00;;;3.60;;
66145;SDS011;52948;60.040;30.320;2023-08-01T20:59:32;4.82;;;3.60;;
66145;SDS011;52948;60.040;30.320;2023-08-01T21:04:35;4.35;;;3.10;;
66145;SDS011;52948;60.040;30.320;2023-08-01T21:09:38;5.85;;;3.22;;
66145;SDS011;52948;60.040;30.320;2023-08-01T21:14:40;4.35;;;3.08;;
66145;SDS011;52948;60.040;30.320;2023-08-01T21:19:42;5.43;;;3.63;;
66145;SDS011;52948;60.040;30.320;2023-08-01T21:24:44;7.38;;;3.88;;
66145;SDS011;52948;60.040;30.320;2023-08-01T21:29:47;4.72;;;3.40;;
66145;SDS011;52948;60.040;30.320;2023-08-01T21:34:50;6.70;;;4.60;;
66145;SDS011;52948;60.040;30.320;2023-08-01T21:39:54;5.45;;;3.72;;
66145;SDS011;52948;60.040;30.320;2023-08-01T21:44:56;6.03;;;4.40;;
66145;SDS011;52948;60.040;30.320;2023-08-01T21:49:59;9.65;;;4.07;;
66145;SDS011;52948;60.040;30.320;2023-08-01T21:55:03;5.00;;;3.47;;
66145;SDS011;52948;60.040;30.320;2023-08-01T22:00:05;5.72;;;3.78;;
66145;SDS011;52948;60.040;30.320;2023-08-01T22:05:12;5.67;;;4.00;;
66145;SDS011;52948;60.040;30.320;2023-08-01T22:10:14;5.85;;;4.35;;
66145;SDS011;52948;60.040;30.320;2023-08-01T22:15:17;5.85;;;4.45;;
66145;SDS011;52948;60.040;30.320;2023-08-01T22:20:20;5.15;;;3.72;;
66145;SDS011;52948;60.040;30.320;2023-08-01T22:25:22;5.18;;;3.65;;
66145;SDS011;52948;60.040;30.320;2023-08-01T22:30:24;5.40;;;4.03;;
66145;SDS011;52948;60.040;30.320;2023-08-01T22:35:27;7.20;;;3.83;;
66145;SDS011;52948;60.040;30.320;2023-08-01T22:40:29;6.20;;;3.70;;
66145;SDS011;52948;60.040;30.320;2023-08-01T22:45:32;5.68;;;3.97;;
66145;SDS011;52948;60.040;30.320;2023-08-01T22:50:34;6.22;;;4.28;;
66145;SDS011;52948;60.040;30.320;2023-08-01T22:55:36;6.75;;;4.07;;
66145;SDS011;52948;60.040;30.320;2023-08-01T23:00:38;8.68;;;4.00;;
66145;SDS011;52948;60.040;30.320;2023-08-01T23:05:41;6.97;;;4.07;;
66145;SDS011;52948;60.040;30.320;2023-08-01T23:10:43;8.15;;;3.83;;
66145;SDS011;52948;60.040;30.320;2023-08-01T23:15:45;5.38;;;3.80;;
66145;SDS011;52948;60.040;30.320;2023-08-01T23:20:49;4.32;;;3.40;;
66145;SDS011;52948;60.040;30.320;2023-08-01T23:26:00;4.97;;;3.53;;
66145;SDS011;52948;60.040;30.320;2023-08-01T23:31:03;5.55;;;3.63;;
66145;SDS011;52948;60.040;30.320;2023-08-01T23:36:09;7.80;;;3.80;;
66145;SDS011;52948;60.040;30.320;2023-08-01T23:41:12;5.55;;;4.13;;
66145;SDS011;52948;60.040;30.320;2023-08-01T23:46:15;5.10;;;3.53;;
66145;SDS011;52948;60.040;30.320;2023-08-01T23:51:17;6.03;;;4.28;;
66145;SDS011;52948;60.040;30.320;2023-08-01T23:56:20;5.35;;;3.50;;
